Flowerfield, Illinois
Current Conditions -  °F | °C
As of 12:51 AM on Sunday 26 Oct 2014 (Local Time) from KORD Reporting Station
Clear Clear  
Wind Chill: 45°   Ceiling: Unl
Heat Index: 49°   Visibility: 10mi
Dew Point: 30°   Wind: 8mph
Humidity: 48%   Direction: 280°W
Pressure: 29.97"   Gusts: NA
Location:  41.8742°N, 88.0172°W
Report Text: KORD 260551Z 28007KT 10SM CLR 09/M01 A2997 RMK AO2 SLP149 T00941011 10172 20094 402220094 51003
Loading
Personal Weather Stations






























Interactive Weather Map
Tropical Storm Tracking
New forecast layout! Learn more

10-Day Weather Forecast

Advertisements
Track Severe Weather on mobile